sensor_id;sensor_type;location;lat;lon;timestamp;P1;durP1;ratioP1;P2;durP2;ratioP2
51270;SDS011;37744;50.960;4.136;2022-11-22T00:01:59;25.23;;;3.72;;
51270;SDS011;37744;50.960;4.136;2022-11-22T00:04:25;17.30;;;3.63;;
51270;SDS011;37744;50.960;4.136;2022-11-22T00:06:50;17.73;;;3.95;;
51270;SDS011;37744;50.960;4.136;2022-11-22T00:09:15;20.35;;;4.00;;
51270;SDS011;37744;50.960;4.136;2022-11-22T00:11:41;23.13;;;4.25;;
51270;SDS011;37744;50.960;4.136;2022-11-22T00:14:06;15.13;;;3.42;;
51270;SDS011;37744;50.960;4.136;2022-11-22T00:16:31;19.20;;;4.18;;
51270;SDS011;37744;50.960;4.136;2022-11-22T00:18:58;15.35;;;3.35;;
51270;SDS011;37744;50.960;4.136;2022-11-22T00:21:23;15.65;;;3.30;;
51270;SDS011;37744;50.960;4.136;2022-11-22T00:23:49;21.55;;;3.88;;
51270;SDS011;37744;50.960;4.136;2022-11-22T00:26:14;20.55;;;3.88;;
51270;SDS011;37744;50.960;4.136;2022-11-22T00:28:39;19.70;;;3.28;;
51270;SDS011;37744;50.960;4.136;2022-11-22T00:31:04;19.13;;;3.70;;
51270;SDS011;37744;50.960;4.136;2022-11-22T00:33:30;15.90;;;3.80;;
51270;SDS011;37744;50.960;4.136;2022-11-22T00:35:55;18.88;;;3.45;;
51270;SDS011;37744;50.960;4.136;2022-11-22T00:38:20;22.50;;;3.80;;
51270;SDS011;37744;50.960;4.136;2022-11-22T00:40:45;25.17;;;4.07;;
51270;SDS011;37744;50.960;4.136;2022-11-22T00:43:10;17.60;;;3.30;;
51270;SDS011;37744;50.960;4.136;2022-11-22T00:45:36;23.52;;;3.53;;
51270;SDS011;37744;50.960;4.136;2022-11-22T00:48:01;20.15;;;3.50;;
51270;SDS011;37744;50.960;4.136;2022-11-22T00:50:26;17.00;;;4.18;;
51270;SDS011;37744;50.960;4.136;2022-11-22T00:52:51;14.90;;;3.30;;
51270;SDS011;37744;50.960;4.136;2022-11-22T00:55:17;18.10;;;3.63;;
51270;SDS011;37744;50.960;4.136;2022-11-22T00:57:42;21.15;;;4.03;;
51270;SDS011;37744;50.960;4.136;2022-11-22T01:00:07;18.75;;;3.63;;
51270;SDS011;37744;50.960;4.136;2022-11-22T01:02:33;17.70;;;3.70;;
51270;SDS011;37744;50.960;4.136;2022-11-22T01:04:58;17.98;;;3.40;;
51270;SDS011;37744;50.960;4.136;2022-11-22T01:07:23;23.90;;;3.30;;
51270;SDS011;37744;50.960;4.136;2022-11-22T01:09:49;23.45;;;3.67;;
51270;SDS011;37744;50.960;4.136;2022-11-22T01:12:14;15.45;;;3.30;;
51270;SDS011;37744;50.960;4.136;2022-11-22T01:14:39;15.75;;;3.15;;
51270;SDS011;37744;50.960;4.136;2022-11-22T01:17:04;16.00;;;3.00;;
51270;SDS011;37744;50.960;4.136;2022-11-22T01:19:30;11.43;;;2.85;;
51270;SDS011;37744;50.960;4.136;2022-11-22T01:21:55;14.73;;;3.28;;
51270;SDS011;37744;50.960;4.136;2022-11-22T01:24:20;17.65;;;2.80;;
51270;SDS011;37744;50.960;4.136;2022-11-22T01:26:46;18.50;;;3.20;;
51270;SDS011;37744;50.960;4.136;2022-11-22T01:29:11;13.65;;;3.42;;
51270;SDS011;37744;50.960;4.136;2022-11-22T01:31:36;14.15;;;3.03;;
51270;SDS011;37744;50.960;4.136;2022-11-22T01:34:03;24.00;;;3.30;;
51270;SDS011;37744;50.960;4.136;2022-11-22T01:36:29;15.57;;;3.25;;
51270;SDS011;37744;50.960;4.136;2022-11-22T01:38:54;15.73;;;3.10;;
51270;SDS011;37744;50.960;4.136;2022-11-22T01:41:19;10.68;;;2.95;;
51270;SDS011;37744;50.960;4.136;2022-11-22T01:43:45;19.60;;;3.25;;
51270;SDS011;37744;50.960;4.136;2022-11-22T01:49:04;13.15;;;2.92;;
51270;SDS011;37744;50.960;4.136;2022-11-22T01:51:34;17.95;;;3.15;;
51270;SDS011;37744;50.960;4.136;2022-11-22T01:54:01;18.92;;;2.83;;
51270;SDS011;37744;50.960;4.136;2022-11-22T01:56:28;18.15;;;3.20;;
51270;SDS011;37744;50.960;4.136;2022-11-22T01:58:57;20.60;;;3.53;;
51270;SDS011;37744;50.960;4.136;2022-11-22T02:01:24;16.90;;;3.30;;
51270;SDS011;37744;50.960;4.136;2022-11-22T02:03:49;20.63;;;3.10;;
51270;SDS011;37744;50.960;4.136;2022-11-22T02:06:16;14.80;;;2.88;;
51270;SDS011;37744;50.960;4.136;2022-11-22T02:11:10;14.65;;;3.10;;
51270;SDS011;37744;50.960;4.136;2022-11-22T02:13:38;14.35;;;2.85;;
51270;SDS011;37744;50.960;4.136;2022-11-22T02:16:03;12.55;;;3.25;;
51270;SDS011;37744;50.960;4.136;2022-11-22T02:18:29;13.50;;;2.85;;
51270;SDS011;37744;50.960;4.136;2022-11-22T02:20:55;18.17;;;2.92;;
51270;SDS011;37744;50.960;4.136;2022-11-22T02:23:42;14.80;;;2.75;;
51270;SDS011;37744;50.960;4.136;2022-11-22T02:26:08;12.18;;;2.22;;
51270;SDS011;37744;50.960;4.136;2022-11-22T02:28:35;13.27;;;2.63;;
51270;SDS011;37744;50.960;4.136;2022-11-22T02:31:00;16.13;;;2.78;;
51270;SDS011;37744;50.960;4.136;2022-11-22T02:33:26;14.52;;;2.65;;
51270;SDS011;37744;50.960;4.136;2022-11-22T02:35:51;10.82;;;2.33;;
51270;SDS011;37744;50.960;4.136;2022-11-22T02:38:18;15.70;;;2.75;;
51270;SDS011;37744;50.960;4.136;2022-11-22T02:41:05;8.25;;;2.35;;
51270;SDS011;37744;50.960;4.136;2022-11-22T02:44:04;11.98;;;2.38;;
51270;SDS011;37744;50.960;4.136;2022-11-22T02:46:22;12.65;;;2.20;;
51270;SDS011;37744;50.960;4.136;2022-11-22T02:48:48;12.82;;;2.33;;
51270;SDS011;37744;50.960;4.136;2022-11-22T02:51:14;15.27;;;2.40;;
51270;SDS011;37744;50.960;4.136;2022-11-22T02:53:44;7.32;;;1.77;;
51270;SDS011;37744;50.960;4.136;2022-11-22T02:56:09;12.55;;;2.25;;
51270;SDS011;37744;50.960;4.136;2022-11-22T02:58:34;6.88;;;2.08;;
51270;SDS011;37744;50.960;4.136;2022-11-22T03:00:59;11.40;;;2.30;;
51270;SDS011;37744;50.960;4.136;2022-11-22T03:03:25;15.73;;;2.03;;
51270;SDS011;37744;50.960;4.136;2022-11-22T03:05:50;14.60;;;2.78;;
51270;SDS011;37744;50.960;4.136;2022-11-22T03:08:15;8.30;;;1.80;;
51270;SDS011;37744;50.960;4.136;2022-11-22T03:10:41;9.45;;;2.30;;
51270;SDS011;37744;50.960;4.136;2022-11-22T03:13:06;9.48;;;1.83;;
51270;SDS011;37744;50.960;4.136;2022-11-22T03:15:31;11.23;;;1.90;;
51270;SDS011;37744;50.960;4.136;2022-11-22T03:18:00;9.27;;;2.05;;
51270;SDS011;37744;50.960;4.136;2022-11-22T03:20:25;10.93;;;2.00;;
51270;SDS011;37744;50.960;4.136;2022-11-22T03:22:51;9.82;;;2.30;;
51270;SDS011;37744;50.960;4.136;2022-11-22T03:25:16;9.77;;;1.80;;
51270;SDS011;37744;50.960;4.136;2022-11-22T03:27:41;9.40;;;2.15;;
51270;SDS011;37744;50.960;4.136;2022-11-22T03:30:07;9.95;;;2.47;;
51270;SDS011;37744;50.960;4.136;2022-11-22T03:32:32;14.88;;;2.33;;
51270;SDS011;37744;50.960;4.136;2022-11-22T03:34:57;15.43;;;2.15;;
51270;SDS011;37744;50.960;4.136;2022-11-22T03:37:22;6.45;;;1.70;;
51270;SDS011;37744;50.960;4.136;2022-11-22T03:39:48;12.05;;;2.30;;
51270;SDS011;37744;50.960;4.136;2022-11-22T03:42:13;6.43;;;1.88;;
51270;SDS011;37744;50.960;4.136;2022-11-22T03:44:38;11.93;;;2.35;;
51270;SDS011;37744;50.960;4.136;2022-11-22T03:47:03;10.00;;;1.95;;
51270;SDS011;37744;50.960;4.136;2022-11-22T03:49:28;8.40;;;1.90;;
51270;SDS011;37744;50.960;4.136;2022-11-22T03:51:54;10.95;;;1.90;;
51270;SDS011;37744;50.960;4.136;2022-11-22T03:54:19;14.02;;;2.08;;
51270;SDS011;37744;50.960;4.136;2022-11-22T03:56:44;10.43;;;1.80;;
51270;SDS011;37744;50.960;4.136;2022-11-22T03:59:09;11.48;;;2.10;;
51270;SDS011;37744;50.960;4.136;2022-11-22T04:01:35;11.57;;;2.30;;
51270;SDS011;37744;50.960;4.136;2022-11-22T04:04:00;11.18;;;2.20;;
51270;SDS011;37744;50.960;4.136;2022-11-22T04:06:25;10.18;;;2.10;;
51270;SDS011;37744;50.960;4.136;2022-11-22T04:08:50;13.23;;;2.08;;
51270;SDS011;37744;50.960;4.136;2022-11-22T04:11:16;7.55;;;2.05;;
51270;SDS011;37744;50.960;4.136;2022-11-22T04:13:41;8.75;;;2.00;;
51270;SDS011;37744;50.960;4.136;2022-11-22T04:16:25;11.40;;;2.08;;
51270;SDS011;37744;50.960;4.136;2022-11-22T04:18:50;12.52;;;2.10;;
51270;SDS011;37744;50.960;4.136;2022-11-22T04:21:15;13.48;;;2.28;;
51270;SDS011;37744;50.960;4.136;2022-11-22T04:24:09;12.52;;;2.17;;
51270;SDS011;37744;50.960;4.136;2022-11-22T04:26:53;12.48;;;2.03;;
51270;SDS011;37744;50.960;4.136;2022-11-22T04:29:18;13.05;;;2.70;;
51270;SDS011;37744;50.960;4.136;2022-11-22T04:31:44;19.63;;;2.20;;
51270;SDS011;37744;50.960;4.136;2022-11-22T04:34:28;7.43;;;2.33;;
51270;SDS011;37744;50.960;4.136;2022-11-22T04:36:54;7.38;;;1.92;;
51270;SDS011;37744;50.960;4.136;2022-11-22T04:39:19;11.23;;;2.30;;
51270;SDS011;37744;50.960;4.136;2022-11-22T04:41:44;11.18;;;2.22;;
51270;SDS011;37744;50.960;4.136;2022-11-22T04:44:10;7.30;;;2.13;;
51270;SDS011;37744;50.960;4.136;2022-11-22T04:46:54;10.93;;;2.40;;
51270;SDS011;37744;50.960;4.136;2022-11-22T04:49:19;10.85;;;2.20;;
51270;SDS011;37744;50.960;4.136;2022-11-22T04:51:44;7.80;;;2.08;;
51270;SDS011;37744;50.960;4.136;2022-11-22T04:54:28;9.63;;;1.90;;
51270;SDS011;37744;50.960;4.136;2022-11-22T04:56:53;9.05;;;2.00;;
51270;SDS011;37744;50.960;4.136;2022-11-22T04:59:18;10.52;;;2.35;;
51270;SDS011;37744;50.960;4.136;2022-11-22T05:01:44;9.27;;;2.22;;
51270;SDS011;37744;50.960;4.136;2022-11-22T05:04:09;8.38;;;2.30;;
51270;SDS011;37744;50.960;4.136;2022-11-22T05:06:35;17.75;;;2.60;;
51270;SDS011;37744;50.960;4.136;2022-11-22T05:09:00;14.13;;;2.42;;
51270;SDS011;37744;50.960;4.136;2022-11-22T05:11:25;9.38;;;2.03;;
51270;SDS011;37744;50.960;4.136;2022-11-22T05:13:50;8.73;;;2.15;;
51270;SDS011;37744;50.960;4.136;2022-11-22T05:16:16;10.18;;;2.08;;
51270;SDS011;37744;50.960;4.136;2022-11-22T05:18:41;8.55;;;2.33;;
51270;SDS011;37744;50.960;4.136;2022-11-22T05:21:10;11.85;;;2.45;;
51270;SDS011;37744;50.960;4.136;2022-11-22T05:23:36;11.07;;;2.15;;
51270;SDS011;37744;50.960;4.136;2022-11-22T05:26:29;7.13;;;2.15;;
51270;SDS011;37744;50.960;4.136;2022-11-22T05:28:55;11.02;;;2.42;;
51270;SDS011;37744;50.960;4.136;2022-11-22T05:31:22;13.30;;;2.42;;
51270;SDS011;37744;50.960;4.136;2022-11-22T05:33:48;10.98;;;2.42;;
51270;SDS011;37744;50.960;4.136;2022-11-22T05:36:14;7.93;;;1.98;;
51270;SDS011;37744;50.960;4.136;2022-11-22T05:38:39;8.38;;;2.17;;
51270;SDS011;37744;50.960;4.136;2022-11-22T05:41:05;10.43;;;2.30;;
51270;SDS011;37744;50.960;4.136;2022-11-22T05:43:31;12.23;;;2.20;;
51270;SDS011;37744;50.960;4.136;2022-11-22T05:46:10;7.65;;;2.38;;
51270;SDS011;37744;50.960;4.136;2022-11-22T05:48:36;13.02;;;5.30;;
51270;SDS011;37744;50.960;4.136;2022-11-22T05:51:05;11.70;;;3.50;;
51270;SDS011;37744;50.960;4.136;2022-11-22T05:53:30;10.32;;;2.28;;
51270;SDS011;37744;50.960;4.136;2022-11-22T05:55:56;9.43;;;2.50;;
51270;SDS011;37744;50.960;4.136;2022-11-22T05:58:21;12.63;;;2.70;;
51270;SDS011;37744;50.960;4.136;2022-11-22T06:00:46;11.98;;;2.92;;
51270;SDS011;37744;50.960;4.136;2022-11-22T06:03:11;7.03;;;2.58;;
51270;SDS011;37744;50.960;4.136;2022-11-22T06:05:37;9.15;;;2.50;;
51270;SDS011;37744;50.960;4.136;2022-11-22T06:08:02;8.13;;;3.20;;
51270;SDS011;37744;50.960;4.136;2022-11-22T06:10:27;15.23;;;3.33;;
51270;SDS011;37744;50.960;4.136;2022-11-22T06:12:53;12.13;;;3.55;;
51270;SDS011;37744;50.960;4.136;2022-11-22T06:15:18;11.80;;;3.05;;
51270;SDS011;37744;50.960;4.136;2022-11-22T06:17:43;11.02;;;2.90;;
51270;SDS011;37744;50.960;4.136;2022-11-22T06:20:08;15.43;;;3.08;;
51270;SDS011;37744;50.960;4.136;2022-11-22T06:22:34;9.32;;;2.22;;
51270;SDS011;37744;50.960;4.136;2022-11-22T06:24:59;9.02;;;2.50;;
51270;SDS011;37744;50.960;4.136;2022-11-22T06:27:24;7.03;;;2.40;;
51270;SDS011;37744;50.960;4.136;2022-11-22T06:29:50;10.43;;;2.70;;
51270;SDS011;37744;50.960;4.136;2022-11-22T06:32:15;13.20;;;3.30;;
51270;SDS011;37744;50.960;4.136;2022-11-22T06:34:40;13.68;;;2.83;;
51270;SDS011;37744;50.960;4.136;2022-11-22T06:37:05;9.70;;;2.60;;
51270;SDS011;37744;50.960;4.136;2022-11-22T06:39:31;9.55;;;2.60;;
51270;SDS011;37744;50.960;4.136;2022-11-22T06:41:56;11.90;;;2.92;;
51270;SDS011;37744;50.960;4.136;2022-11-22T06:44:21;12.65;;;3.00;;
51270;SDS011;37744;50.960;4.136;2022-11-22T06:46:46;8.80;;;2.80;;
51270;SDS011;37744;50.960;4.136;2022-11-22T06:49:12;10.82;;;3.00;;
51270;SDS011;37744;50.960;4.136;2022-11-22T06:51:37;13.13;;;2.80;;
51270;SDS011;37744;50.960;4.136;2022-11-22T06:54:02;8.20;;;2.80;;
51270;SDS011;37744;50.960;4.136;2022-11-22T06:56:33;8.93;;;2.53;;
51270;SDS011;37744;50.960;4.136;2022-11-22T06:59:00;8.90;;;2.35;;
51270;SDS011;37744;50.960;4.136;2022-11-22T07:01:26;9.55;;;2.65;;
51270;SDS011;37744;50.960;4.136;2022-11-22T07:03:52;7.20;;;2.40;;
51270;SDS011;37744;50.960;4.136;2022-11-22T07:06:22;11.23;;;2.67;;
51270;SDS011;37744;50.960;4.136;2022-11-22T07:08:47;11.77;;;2.75;;
51270;SDS011;37744;50.960;4.136;2022-11-22T07:11:17;8.10;;;2.70;;
51270;SDS011;37744;50.960;4.136;2022-11-22T07:13:43;11.40;;;2.47;;
51270;SDS011;37744;50.960;4.136;2022-11-22T07:16:09;9.10;;;2.30;;
51270;SDS011;37744;50.960;4.136;2022-11-22T07:18:35;11.52;;;2.90;;
51270;SDS011;37744;50.960;4.136;2022-11-22T07:21:07;6.75;;;2.40;;
51270;SDS011;37744;50.960;4.136;2022-11-22T07:23:33;8.40;;;2.55;;
51270;SDS011;37744;50.960;4.136;2022-11-22T07:25:58;9.07;;;2.72;;
51270;SDS011;37744;50.960;4.136;2022-11-22T07:28:24;5.82;;;2.35;;
51270;SDS011;37744;50.960;4.136;2022-11-22T07:30:49;10.60;;;2.92;;
51270;SDS011;37744;50.960;4.136;2022-11-22T07:33:14;10.88;;;2.38;;
51270;SDS011;37744;50.960;4.136;2022-11-22T07:35:40;10.23;;;2.70;;
51270;SDS011;37744;50.960;4.136;2022-11-22T07:38:05;9.13;;;2.20;;
51270;SDS011;37744;50.960;4.136;2022-11-22T07:40:30;9.32;;;2.75;;
51270;SDS011;37744;50.960;4.136;2022-11-22T07:42:55;10.57;;;2.70;;
51270;SDS011;37744;50.960;4.136;2022-11-22T07:45:20;7.85;;;2.33;;
51270;SDS011;37744;50.960;4.136;2022-11-22T07:47:46;9.68;;;3.28;;
51270;SDS011;37744;50.960;4.136;2022-11-22T07:50:11;8.68;;;2.78;;
51270;SDS011;37744;50.960;4.136;2022-11-22T07:52:36;14.27;;;3.35;;
51270;SDS011;37744;50.960;4.136;2022-11-22T07:55:02;15.25;;;3.10;;
51270;SDS011;37744;50.960;4.136;2022-11-22T07:57:27;10.82;;;2.88;;
51270;SDS011;37744;50.960;4.136;2022-11-22T07:59:52;11.02;;;3.10;;
51270;SDS011;37744;50.960;4.136;2022-11-22T08:02:17;7.88;;;2.40;;
51270;SDS011;37744;50.960;4.136;2022-11-22T08:04:43;7.85;;;2.70;;
51270;SDS011;37744;50.960;4.136;2022-11-22T08:07:08;11.20;;;2.90;;
51270;SDS011;37744;50.960;4.136;2022-11-22T08:09:33;7.93;;;3.05;;
51270;SDS011;37744;50.960;4.136;2022-11-22T08:11:59;7.63;;;2.33;;
51270;SDS011;37744;50.960;4.136;2022-11-22T08:14:24;10.05;;;2.72;;
51270;SDS011;37744;50.960;4.136;2022-11-22T08:16:49;9.07;;;2.45;;
51270;SDS011;37744;50.960;4.136;2022-11-22T08:19:14;7.03;;;2.30;;
51270;SDS011;37744;50.960;4.136;2022-11-22T08:21:42;7.47;;;2.58;;
51270;SDS011;37744;50.960;4.136;2022-11-22T08:24:07;10.95;;;2.65;;
51270;SDS011;37744;50.960;4.136;2022-11-22T08:26:33;10.15;;;2.90;;
51270;SDS011;37744;50.960;4.136;2022-11-22T08:28:58;10.60;;;2.72;;
51270;SDS011;37744;50.960;4.136;2022-11-22T08:31:23;8.57;;;2.70;;
51270;SDS011;37744;50.960;4.136;2022-11-22T08:33:51;9.25;;;2.30;;
51270;SDS011;37744;50.960;4.136;2022-11-22T08:36:16;10.65;;;1.98;;
51270;SDS011;37744;50.960;4.136;2022-11-22T08:38:42;7.50;;;2.33;;
51270;SDS011;37744;50.960;4.136;2022-11-22T08:41:07;10.20;;;2.65;;
51270;SDS011;37744;50.960;4.136;2022-11-22T08:43:32;5.70;;;2.50;;
51270;SDS011;37744;50.960;4.136;2022-11-22T08:45:58;10.90;;;2.90;;
51270;SDS011;37744;50.960;4.136;2022-11-22T08:48:24;5.47;;;2.40;;
51270;SDS011;37744;50.960;4.136;2022-11-22T08:50:50;11.25;;;2.70;;
51270;SDS011;37744;50.960;4.136;2022-11-22T08:53:15;9.98;;;2.80;;
51270;SDS011;37744;50.960;4.136;2022-11-22T08:55:40;6.25;;;2.88;;
51270;SDS011;37744;50.960;4.136;2022-11-22T08:58:06;11.30;;;2.83;;
51270;SDS011;37744;50.960;4.136;2022-11-22T09:00:31;15.60;;;4.05;;
51270;SDS011;37744;50.960;4.136;2022-11-22T09:02:56;11.15;;;3.42;;
51270;SDS011;37744;50.960;4.136;2022-11-22T09:05:22;6.32;;;2.60;;
51270;SDS011;37744;50.960;4.136;2022-11-22T09:07:47;10.18;;;2.42;;
51270;SDS011;37744;50.960;4.136;2022-11-22T09:10:12;10.10;;;3.40;;
51270;SDS011;37744;50.960;4.136;2022-11-22T09:12:37;7.63;;;2.70;;
51270;SDS011;37744;50.960;4.136;2022-11-22T09:15:06;6.03;;;2.70;;
51270;SDS011;37744;50.960;4.136;2022-11-22T09:17:32;9.50;;;2.35;;
51270;SDS011;37744;50.960;4.136;2022-11-22T09:19:57;10.15;;;2.70;;
51270;SDS011;37744;50.960;4.136;2022-11-22T09:22:22;7.50;;;2.35;;
51270;SDS011;37744;50.960;4.136;2022-11-22T09:24:47;12.63;;;2.78;;
51270;SDS011;37744;50.960;4.136;2022-11-22T09:27:12;8.45;;;2.47;;
51270;SDS011;37744;50.960;4.136;2022-11-22T09:29:38;11.57;;;2.50;;
51270;SDS011;37744;50.960;4.136;2022-11-22T09:32:07;8.38;;;2.92;;
51270;SDS011;37744;50.960;4.136;2022-11-22T09:34:32;9.05;;;2.55;;
51270;SDS011;37744;50.960;4.136;2022-11-22T09:36:58;10.25;;;2.40;;
51270;SDS011;37744;50.960;4.136;2022-11-22T09:39:24;7.25;;;2.92;;
51270;SDS011;37744;50.960;4.136;2022-11-22T09:49:40;5.03;;;2.67;;
51270;SDS011;37744;50.960;4.136;2022-11-22T09:52:14;8.98;;;2.75;;
51270;SDS011;37744;50.960;4.136;2022-11-22T09:57:14;4.63;;;2.22;;
51270;SDS011;37744;50.960;4.136;2022-11-22T09:59:40;6.45;;;2.45;;
51270;SDS011;37744;50.960;4.136;2022-11-22T10:02:16;7.75;;;3.05;;
51270;SDS011;37744;50.960;4.136;2022-11-22T10:04:44;6.75;;;2.35;;
51270;SDS011;37744;50.960;4.136;2022-11-22T10:09:41;6.22;;;2.10;;
51270;SDS011;37744;50.960;4.136;2022-11-22T10:19:53;8.02;;;2.10;;
51270;SDS011;37744;50.960;4.136;2022-11-22T10:22:22;7.75;;;2.20;;
51270;SDS011;37744;50.960;4.136;2022-11-22T10:24:48;7.28;;;2.80;;
51270;SDS011;37744;50.960;4.136;2022-11-22T10:27:13;5.55;;;2.05;;
51270;SDS011;37744;50.960;4.136;2022-11-22T10:32:17;5.25;;;1.92;;
51270;SDS011;37744;50.960;4.136;2022-11-22T10:37:22;6.53;;;1.65;;
51270;SDS011;37744;50.960;4.136;2022-11-22T10:42:54;2.70;;;1.40;;
51270;SDS011;37744;50.960;4.136;2022-11-22T10:45:25;4.28;;;2.33;;
51270;SDS011;37744;50.960;4.136;2022-11-22T10:48:01;3.35;;;1.33;;
51270;SDS011;37744;50.960;4.136;2022-11-22T11:00:45;7.70;;;1.92;;
51270;SDS011;37744;50.960;4.136;2022-11-22T11:03:29;5.32;;;2.00;;
51270;SDS011;37744;50.960;4.136;2022-11-22T11:08:41;4.68;;;1.73;;
51270;SDS011;37744;50.960;4.136;2022-11-22T11:11:07;4.32;;;2.00;;
51270;SDS011;37744;50.960;4.136;2022-11-22T11:13:41;3.97;;;2.10;;
51270;SDS011;37744;50.960;4.136;2022-11-22T11:16:09;6.88;;;2.13;;
51270;SDS011;37744;50.960;4.136;2022-11-22T11:21:09;7.90;;;2.63;;
51270;SDS011;37744;50.960;4.136;2022-11-22T11:23:35;4.43;;;2.20;;
51270;SDS011;37744;50.960;4.136;2022-11-22T11:28:44;4.65;;;2.20;;
51270;SDS011;37744;50.960;4.136;2022-11-22T11:31:10;8.68;;;2.33;;
51270;SDS011;37744;50.960;4.136;2022-11-22T11:33:37;6.28;;;2.25;;
51270;SDS011;37744;50.960;4.136;2022-11-22T11:36:07;5.47;;;1.90;;
51270;SDS011;37744;50.960;4.136;2022-11-22T11:41:15;3.85;;;2.28;;
51270;SDS011;37744;50.960;4.136;2022-11-22T11:43:42;4.85;;;1.73;;
51270;SDS011;37744;50.960;4.136;2022-11-22T11:46:17;5.45;;;1.63;;
51270;SDS011;37744;50.960;4.136;2022-11-22T11:48:42;2.83;;;1.50;;
51270;SDS011;37744;50.960;4.136;2022-11-22T11:53:36;3.03;;;1.20;;
51270;SDS011;37744;50.960;4.136;2022-11-22T11:56:17;1.10;;;1.00;;
51270;SDS011;37744;50.960;4.136;2022-11-22T11:58:43;1.42;;;1.25;;
51270;SDS011;37744;50.960;4.136;2022-11-22T12:01:16;2.05;;;1.27;;
51270;SDS011;37744;50.960;4.136;2022-11-22T12:03:41;3.53;;;1.20;;
51270;SDS011;37744;50.960;4.136;2022-11-22T12:06:10;2.60;;;0.90;;
51270;SDS011;37744;50.960;4.136;2022-11-22T12:08:36;1.20;;;1.10;;
51270;SDS011;37744;50.960;4.136;2022-11-22T12:11:04;2.08;;;1.25;;
51270;SDS011;37744;50.960;4.136;2022-11-22T12:13:32;3.10;;;2.28;;
51270;SDS011;37744;50.960;4.136;2022-11-22T12:21:05;3.30;;;1.40;;
51270;SDS011;37744;50.960;4.136;2022-11-22T12:26:01;4.88;;;1.40;;
51270;SDS011;37744;50.960;4.136;2022-11-22T12:28:27;1.85;;;1.30;;
51270;SDS011;37744;50.960;4.136;2022-11-22T12:33:26;1.67;;;1.17;;
51270;SDS011;37744;50.960;4.136;2022-11-22T12:35:53;1.58;;;0.90;;
51270;SDS011;37744;50.960;4.136;2022-11-22T12:38:20;2.97;;;1.08;;
51270;SDS011;37744;50.960;4.136;2022-11-22T12:40:51;2.05;;;1.00;;
51270;SDS011;37744;50.960;4.136;2022-11-22T12:43:22;4.00;;;0.80;;
51270;SDS011;37744;50.960;4.136;2022-11-22T12:45:50;1.77;;;0.90;;
51270;SDS011;37744;50.960;4.136;2022-11-22T12:53:35;2.93;;;1.70;;
51270;SDS011;37744;50.960;4.136;2022-11-22T12:58:32;2.60;;;1.45;;
51270;SDS011;37744;50.960;4.136;2022-11-22T13:01:19;2.58;;;0.80;;
51270;SDS011;37744;50.960;4.136;2022-11-22T13:03:51;1.58;;;1.20;;
51270;SDS011;37744;50.960;4.136;2022-11-22T13:06:18;3.25;;;1.20;;
51270;SDS011;37744;50.960;4.136;2022-11-22T13:11:15;2.08;;;1.08;;
51270;SDS011;37744;50.960;4.136;2022-11-22T13:13:44;1.52;;;1.05;;
51270;SDS011;37744;50.960;4.136;2022-11-22T13:16:10;3.65;;;1.30;;
51270;SDS011;37744;50.960;4.136;2022-11-22T13:18:37;2.78;;;1.30;;
51270;SDS011;37744;50.960;4.136;2022-11-22T13:26:44;1.50;;;1.15;;
51270;SDS011;37744;50.960;4.136;2022-11-22T13:29:21;2.40;;;1.20;;
51270;SDS011;37744;50.960;4.136;2022-11-22T13:37:07;3.85;;;1.25;;
51270;SDS011;37744;50.960;4.136;2022-11-22T13:39:34;4.03;;;1.90;;
51270;SDS011;37744;50.960;4.136;2022-11-22T13:42:02;4.07;;;2.40;;
51270;SDS011;37744;50.960;4.136;2022-11-22T13:51:58;2.10;;;1.30;;
51270;SDS011;37744;50.960;4.136;2022-11-22T13:55:19;2.42;;;1.15;;
51270;SDS011;37744;50.960;4.136;2022-11-22T14:02:34;4.20;;;1.30;;
51270;SDS011;37744;50.960;4.136;2022-11-22T14:05:00;1.25;;;0.90;;
51270;SDS011;37744;50.960;4.136;2022-11-22T14:07:28;4.15;;;1.27;;
51270;SDS011;37744;50.960;4.136;2022-11-22T14:09:56;4.00;;;1.10;;
51270;SDS011;37744;50.960;4.136;2022-11-22T14:12:25;2.58;;;1.10;;
51270;SDS011;37744;50.960;4.136;2022-11-22T14:15:36;3.17;;;1.08;;
51270;SDS011;37744;50.960;4.136;2022-11-22T14:17:58;1.92;;;1.10;;
51270;SDS011;37744;50.960;4.136;2022-11-22T14:20:31;2.40;;;1.20;;
51270;SDS011;37744;50.960;4.136;2022-11-22T14:30:21;3.05;;;1.52;;
51270;SDS011;37744;50.960;4.136;2022-11-22T14:37:56;3.45;;;1.83;;
51270;SDS011;37744;50.960;4.136;2022-11-22T14:40:42;3.03;;;1.33;;
51270;SDS011;37744;50.960;4.136;2022-11-22T14:48:20;5.60;;;1.00;;
51270;SDS011;37744;50.960;4.136;2022-11-22T14:50:47;5.20;;;1.38;;
51270;SDS011;37744;50.960;4.136;2022-11-22T14:55:49;4.30;;;2.20;;
51270;SDS011;37744;50.960;4.136;2022-11-22T14:58:20;4.25;;;0.80;;
51270;SDS011;37744;50.960;4.136;2022-11-22T15:06:24;4.13;;;1.10;;
51270;SDS011;37744;50.960;4.136;2022-11-22T15:11:38;2.83;;;1.20;;
51270;SDS011;37744;50.960;4.136;2022-11-22T15:16:38;3.75;;;1.13;;
51270;SDS011;37744;50.960;4.136;2022-11-22T15:19:04;3.45;;;1.10;;
51270;SDS011;37744;50.960;4.136;2022-11-22T15:21:33;4.78;;;0.95;;
51270;SDS011;37744;50.960;4.136;2022-11-22T15:23:59;4.28;;;1.52;;
51270;SDS011;37744;50.960;4.136;2022-11-22T15:26:26;6.10;;;1.20;;
51270;SDS011;37744;50.960;4.136;2022-11-22T15:28:52;4.40;;;1.30;;
51270;SDS011;37744;50.960;4.136;2022-11-22T15:31:22;5.13;;;1.42;;
51270;SDS011;37744;50.960;4.136;2022-11-22T15:33:51;4.65;;;1.17;;
51270;SDS011;37744;50.960;4.136;2022-11-22T15:38:42;4.75;;;1.25;;
51270;SDS011;37744;50.960;4.136;2022-11-22T15:41:14;5.60;;;1.60;;
51270;SDS011;37744;50.960;4.136;2022-11-22T15:43:40;9.30;;;1.50;;
51270;SDS011;37744;50.960;4.136;2022-11-22T15:46:06;4.65;;;1.17;;
51270;SDS011;37744;50.960;4.136;2022-11-22T15:48:33;5.43;;;1.30;;
51270;SDS011;37744;50.960;4.136;2022-11-22T15:50:59;7.20;;;1.40;;
51270;SDS011;37744;50.960;4.136;2022-11-22T15:53:25;7.32;;;2.10;;
51270;SDS011;37744;50.960;4.136;2022-11-22T15:55:53;7.40;;;1.90;;
51270;SDS011;37744;50.960;4.136;2022-11-22T15:58:19;8.70;;;2.17;;
51270;SDS011;37744;50.960;4.136;2022-11-22T16:00:44;8.95;;;2.03;;
51270;SDS011;37744;50.960;4.136;2022-11-22T16:03:13;7.30;;;2.33;;
51270;SDS011;37744;50.960;4.136;2022-11-22T16:05:41;6.93;;;2.45;;
51270;SDS011;37744;50.960;4.136;2022-11-22T16:08:06;7.95;;;2.22;;
51270;SDS011;37744;50.960;4.136;2022-11-22T16:10:36;8.60;;;2.25;;
51270;SDS011;37744;50.960;4.136;2022-11-22T16:15:43;7.63;;;2.55;;
51270;SDS011;37744;50.960;4.136;2022-11-22T16:18:26;9.75;;;2.72;;
51270;SDS011;37744;50.960;4.136;2022-11-22T16:23:29;10.73;;;2.75;;
51270;SDS011;37744;50.960;4.136;2022-11-22T16:25:57;13.45;;;2.65;;
51270;SDS011;37744;50.960;4.136;2022-11-22T16:30:48;10.43;;;3.00;;
51270;SDS011;37744;50.960;4.136;2022-11-22T16:33:13;16.75;;;3.05;;
51270;SDS011;37744;50.960;4.136;2022-11-22T16:35:38;11.07;;;2.63;;
51270;SDS011;37744;50.960;4.136;2022-11-22T16:38:04;10.95;;;2.63;;
51270;SDS011;37744;50.960;4.136;2022-11-22T16:40:31;13.32;;;2.70;;
51270;SDS011;37744;50.960;4.136;2022-11-22T16:42:56;18.20;;;3.40;;
51270;SDS011;37744;50.960;4.136;2022-11-22T16:45:21;12.15;;;2.97;;
51270;SDS011;37744;50.960;4.136;2022-11-22T16:47:47;15.23;;;3.00;;
51270;SDS011;37744;50.960;4.136;2022-11-22T16:50:13;15.45;;;3.70;;
51270;SDS011;37744;50.960;4.136;2022-11-22T16:52:39;14.30;;;3.25;;
51270;SDS011;37744;50.960;4.136;2022-11-22T16:55:05;14.77;;;3.63;;
51270;SDS011;37744;50.960;4.136;2022-11-22T16:57:30;13.88;;;3.25;;
51270;SDS011;37744;50.960;4.136;2022-11-22T16:59:55;14.80;;;3.22;;
51270;SDS011;37744;50.960;4.136;2022-11-22T17:02:20;15.15;;;3.30;;
51270;SDS011;37744;50.960;4.136;2022-11-22T17:04:46;15.05;;;3.17;;